createdAt,value
2017-04-13T00:00:20.351Z,54.00
2017-04-13T00:01:21.119Z,50.00
2017-04-13T00:02:21.888Z,43.00
2017-04-13T00:03:22.653Z,60.00
2017-04-13T00:04:23.677Z,53.00
2017-04-13T00:05:24.443Z,63.00
2017-04-13T00:06:25.209Z,58.00
2017-04-13T00:07:25.980Z,56.00
2017-04-13T00:08:26.747Z,51.00
2017-04-13T00:09:27.766Z,46.00
2017-04-13T00:10:28.533Z,56.00
2017-04-13T00:11:29.303Z,41.00
2017-04-13T00:12:30.071Z,42.00
2017-04-13T00:13:30.841Z,72.00
2017-04-13T00:14:31.859Z,60.00
2017-04-13T00:15:32.623Z,47.00
2017-04-13T00:16:33.393Z,55.00
2017-04-13T00:17:34.160Z,51.00
2017-04-13T00:18:34.932Z,43.00
2017-04-13T00:19:35.952Z,53.00
2017-04-13T00:20:36.724Z,57.00
2017-04-13T00:21:37.491Z,56.00
2017-04-13T00:22:38.262Z,53.00
2017-04-13T00:23:39.028Z,48.00
2017-04-13T00:24:40.049Z,55.00
2017-04-13T00:25:40.815Z,45.00
2017-04-13T00:26:41.587Z,48.00
2017-04-13T00:27:42.353Z,66.00
2017-04-13T00:28:43.120Z,45.00
2017-04-13T00:29:44.139Z,58.00
2017-04-13T00:30:44.909Z,57.00
2017-04-13T00:31:45.680Z,42.00
2017-04-13T00:32:46.444Z,52.00
2017-04-13T00:33:47.212Z,40.00
2017-04-13T00:34:48.233Z,54.00
2017-04-13T00:35:49.002Z,57.00
2017-04-13T00:36:49.766Z,47.00
2017-04-13T00:37:50.538Z,57.00
2017-04-13T00:38:51.310Z,56.00
2017-04-13T00:39:52.326Z,48.00
2017-04-13T00:40:53.094Z,55.00
2017-04-13T00:41:53.861Z,38.00
2017-04-13T00:42:54.634Z,59.00
2017-04-13T00:43:55.398Z,39.00
2017-04-13T00:44:56.415Z,57.00
2017-04-13T00:45:57.187Z,49.00
2017-04-13T00:46:57.956Z,46.00
2017-04-13T00:47:58.720Z,44.00
2017-04-13T00:48:59.493Z,53.00
2017-04-13T00:50:00.507Z,49.00
2017-04-13T00:51:01.279Z,44.00
2017-04-13T00:52:02.044Z,46.00
2017-04-13T00:53:02.814Z,46.00
2017-04-13T00:54:03.581Z,56.00
2017-04-13T00:55:04.565Z,42.00
2017-04-13T00:56:05.333Z,52.00
2017-04-13T00:57:06.100Z,54.00
2017-04-13T00:58:06.866Z,55.00
2017-04-13T00:59:07.635Z,51.00
2017-04-13T01:00:08.650Z,55.00
2017-04-13T01:01:09.418Z,45.00
2017-04-13T01:02:10.184Z,52.00
2017-04-13T01:03:10.962Z,55.00
2017-04-13T01:04:11.722Z,43.00
2017-04-13T01:05:12.744Z,47.00
2017-04-13T01:06:13.512Z,48.00
2017-04-13T01:07:14.282Z,60.00
2017-04-13T01:08:15.047Z,58.00
2017-04-13T01:09:15.814Z,53.00
2017-04-13T01:10:16.834Z,55.00
2017-04-13T01:11:17.600Z,50.00
2017-04-13T01:12:18.366Z,55.00
2017-04-13T01:13:19.132Z,46.00
2017-04-13T01:14:19.902Z,49.00
2017-04-13T01:15:20.919Z,44.00
2017-04-13T01:16:21.685Z,44.00
2017-04-13T01:17:22.452Z,56.00
2017-04-13T01:18:23.219Z,66.00
2017-04-13T01:19:23.987Z,58.00
2017-04-13T01:20:25.004Z,47.00
2017-04-13T01:21:25.777Z,67.00
2017-04-13T01:22:26.542Z,54.00
2017-04-13T01:23:27.308Z,54.00
2017-04-13T01:24:28.079Z,50.00
2017-04-13T01:25:29.146Z,48.00
2017-04-13T01:26:29.911Z,51.00
2017-04-13T01:27:30.681Z,58.00
2017-04-13T01:28:31.448Z,54.00
2017-04-13T01:29:32.219Z,47.00
2017-04-13T01:30:33.237Z,35.00
2017-04-13T01:31:34.004Z,58.00
2017-04-13T01:32:34.772Z,62.00
2017-04-13T01:33:35.538Z,70.00
2017-04-13T01:34:36.308Z,65.00
2017-04-13T01:35:37.514Z,45.00
2017-04-13T01:36:38.278Z,59.00
2017-04-13T01:37:39.048Z,42.00
2017-04-13T01:38:39.815Z,45.00
2017-04-13T01:39:40.581Z,54.00
2017-04-13T01:40:41.600Z,56.00
2017-04-13T01:41:42.371Z,55.00
2017-04-13T01:42:43.141Z,46.00
2017-04-13T01:43:43.906Z,72.00
2017-04-13T01:44:44.675Z,54.00
2017-04-13T01:45:45.693Z,59.00
2017-04-13T01:46:46.464Z,51.00
2017-04-13T01:47:47.231Z,51.00
2017-04-13T01:48:47.998Z,57.00
2017-04-13T01:49:48.768Z,52.00
2017-04-13T01:50:49.786Z,56.00
2017-04-13T01:51:50.552Z,55.00
2017-04-13T01:52:51.322Z,47.00
2017-04-13T01:53:52.097Z,60.00
2017-04-13T01:54:52.857Z,50.00
2017-04-13T01:55:53.878Z,67.00
2017-04-13T01:56:54.643Z,52.00
2017-04-13T01:57:55.414Z,44.00
2017-04-13T01:58:56.223Z,38.00
2017-04-13T01:59:56.952Z,47.00
2017-04-13T02:00:57.971Z,51.00
2017-04-13T02:01:58.736Z,46.00
2017-04-13T02:02:59.503Z,50.00
2017-04-13T02:04:00.278Z,55.00
2017-04-13T02:05:01.045Z,58.00
2017-04-13T02:06:02.066Z,53.00
2017-04-13T02:07:02.833Z,60.00
2017-04-13T02:08:03.599Z,52.00
2017-04-13T02:09:04.366Z,53.00
2017-04-13T02:10:05.135Z,61.00
2017-04-13T02:11:06.154Z,61.00
2017-04-13T02:12:06.919Z,40.00
2017-04-13T02:13:07.685Z,42.00
2017-04-13T02:14:08.459Z,51.00
2017-04-13T02:15:09.222Z,51.00
2017-04-13T02:16:10.244Z,46.00
2017-04-13T02:17:11.007Z,49.00
2017-04-13T02:18:11.782Z,49.00
2017-04-13T02:19:12.543Z,55.00
2017-04-13T02:20:13.310Z,54.00
2017-04-13T02:21:14.331Z,44.00
2017-04-13T02:22:15.101Z,44.00
2017-04-13T02:23:15.869Z,54.00
2017-04-13T02:24:16.636Z,61.00
2017-04-13T02:25:17.406Z,48.00
2017-04-13T02:26:18.426Z,65.00
2017-04-13T02:27:19.190Z,48.00
2017-04-13T02:28:19.959Z,50.00
2017-04-13T02:29:20.726Z,54.00
2017-04-13T02:30:21.495Z,57.00
2017-04-13T02:31:22.514Z,52.00
2017-04-13T02:32:23.284Z,59.00
2017-04-13T02:33:24.050Z,44.00
2017-04-13T02:34:24.820Z,48.00
2017-04-13T02:35:25.589Z,63.00
2017-04-13T02:36:26.606Z,57.00
2017-04-13T02:37:27.373Z,48.00
2017-04-13T02:38:28.141Z,51.00
2017-04-13T02:39:28.908Z,49.00
2017-04-13T02:40:29.681Z,61.00
2017-04-13T02:41:30.698Z,51.00
2017-04-13T02:42:31.465Z,38.00
2017-04-13T02:43:32.232Z,48.00
2017-04-13T02:44:33.003Z,36.00
2017-04-13T02:45:33.770Z,59.00
2017-04-13T02:46:34.786Z,40.00
2017-04-13T02:47:35.557Z,42.00
2017-04-13T02:48:36.327Z,45.00
2017-04-13T02:49:37.093Z,45.00
2017-04-13T02:50:37.864Z,45.00
2017-04-13T02:51:38.881Z,44.00
2017-04-13T02:52:39.650Z,46.00
2017-04-13T02:53:40.420Z,40.00
2017-04-13T02:54:41.190Z,41.00
2017-04-13T02:55:41.958Z,27.00
2017-04-13T02:56:42.973Z,38.00
2017-04-13T02:57:43.743Z,39.00
2017-04-13T02:58:44.512Z,36.00
2017-04-13T02:59:45.286Z,37.00
2017-04-13T03:00:46.050Z,53.00
2017-04-13T03:01:47.067Z,46.00
2017-04-13T03:02:47.834Z,47.00
2017-04-13T03:03:48.602Z,37.00
2017-04-13T03:04:49.369Z,39.00
2017-04-13T03:05:50.136Z,48.00
2017-04-13T03:06:51.150Z,47.00
2017-04-13T03:07:51.918Z,31.00
2017-04-13T03:08:52.689Z,42.00
2017-04-13T03:09:53.454Z,35.00
2017-04-13T03:10:54.223Z,35.00
2017-04-13T03:11:55.244Z,36.00
2017-04-13T03:12:56.012Z,36.00
2017-04-13T03:13:56.781Z,38.00
2017-04-13T03:14:57.546Z,36.00
2017-04-13T03:15:58.313Z,38.00
2017-04-13T03:16:59.330Z,49.00
2017-04-13T03:18:00.098Z,46.00
2017-04-13T03:19:00.867Z,44.00
2017-04-13T03:20:01.632Z,35.00
2017-04-13T03:21:02.406Z,51.00
2017-04-13T03:22:03.424Z,34.00
2017-04-13T03:23:04.189Z,32.00
2017-04-13T03:24:05.040Z,40.00
2017-04-13T03:25:06.025Z,37.00
2017-04-13T03:26:06.795Z,47.00
2017-04-13T03:27:07.821Z,34.00
2017-04-13T03:28:08.573Z,38.00
2017-04-13T03:29:09.344Z,45.00
2017-04-13T03:30:10.110Z,44.00
2017-04-13T03:31:10.878Z,44.00
2017-04-13T03:32:11.898Z,56.00
2017-04-13T03:33:12.667Z,78.00
2017-04-13T03:34:13.620Z,41.00
2017-04-13T03:35:14.388Z,55.00
2017-04-13T03:36:15.155Z,42.00
2017-04-13T03:37:16.177Z,44.00
2017-04-13T03:38:16.942Z,51.00
2017-04-13T03:39:17.710Z,62.00
2017-04-13T03:40:18.480Z,47.00
2017-04-13T03:41:19.246Z,49.00
2017-04-13T03:42:20.265Z,51.00
2017-04-13T03:43:21.031Z,49.00
2017-04-13T03:44:21.803Z,39.00
2017-04-13T03:45:22.572Z,46.00
2017-04-13T03:46:23.525Z,46.00
2017-04-13T03:47:24.544Z,42.00
2017-04-13T03:48:25.308Z,51.00
2017-04-13T03:49:26.076Z,51.00
2017-04-13T03:50:26.843Z,72.00
2017-04-13T03:51:27.611Z,49.00
2017-04-13T03:52:28.630Z,47.00
2017-04-13T03:53:29.398Z,64.00
2017-04-13T03:54:30.168Z,45.00
2017-04-13T03:55:30.935Z,62.00
2017-04-13T03:56:31.702Z,47.00
2017-04-13T03:57:32.719Z,54.00
2017-04-13T03:58:33.485Z,47.00
2017-04-13T03:59:34.254Z,53.00
2017-04-13T04:00:35.019Z,49.00
2017-04-13T04:01:35.785Z,56.00
2017-04-13T04:02:36.802Z,49.00
2017-04-13T04:03:37.573Z,52.00
2017-04-13T04:04:38.344Z,51.00
2017-04-13T04:05:39.112Z,45.00
2017-04-13T04:06:39.881Z,58.00
2017-04-13T04:07:40.900Z,56.00
2017-04-13T04:08:41.664Z,47.00
2017-04-13T04:09:42.432Z,44.00
2017-04-13T04:10:43.215Z,56.00
2017-04-13T04:11:43.981Z,57.00
2017-04-13T04:12:45.000Z,66.00
2017-04-13T04:13:45.770Z,55.00
2017-04-13T04:14:46.538Z,43.00
2017-04-13T04:15:47.305Z,46.00
2017-04-13T04:16:48.072Z,47.00
2017-04-13T04:17:49.093Z,44.00
2017-04-13T04:18:49.861Z,45.00
2017-04-13T04:19:50.631Z,63.00
2017-04-13T04:20:51.400Z,59.00
2017-04-13T04:21:52.171Z,49.00
2017-04-13T04:22:53.192Z,53.00
2017-04-13T04:23:53.958Z,49.00
2017-04-13T04:24:54.725Z,49.00
2017-04-13T04:25:55.497Z,57.00
2017-04-13T04:26:56.263Z,46.00
2017-04-13T04:27:57.283Z,67.00
2017-04-13T04:28:58.052Z,51.00
2017-04-13T04:29:58.825Z,43.00
2017-04-13T04:30:59.595Z,54.00
2017-04-13T04:32:00.358Z,58.00
2017-04-13T04:33:01.381Z,48.00
2017-04-13T04:34:02.152Z,54.00
2017-04-13T04:35:02.922Z,56.00
2017-04-13T04:36:03.694Z,55.00
2017-04-13T04:37:04.460Z,62.00
2017-04-13T04:38:05.484Z,74.00
2017-04-13T04:39:06.254Z,60.00
2017-04-13T04:40:07.025Z,65.00
2017-04-13T04:41:07.796Z,54.00
2017-04-13T04:42:08.566Z,54.00
2017-04-13T04:43:09.769Z,61.00
2017-04-13T04:44:10.539Z,55.00
2017-04-13T04:45:11.311Z,85.00
2017-04-13T04:46:12.081Z,70.00
2017-04-13T04:47:12.852Z,58.00
2017-04-13T04:48:13.872Z,51.00
2017-04-13T04:49:14.647Z,69.00
2017-04-13T04:50:15.414Z,53.00
2017-04-13T04:51:16.182Z,72.00
2017-04-13T04:52:16.950Z,58.00
2017-04-13T04:53:17.971Z,65.00
2017-04-13T04:54:18.742Z,69.00
2017-04-13T04:55:19.531Z,58.00
2017-04-13T04:56:20.306Z,65.00
2017-04-13T04:57:21.073Z,64.00
2017-04-13T04:58:22.097Z,73.00
2017-04-13T04:59:22.871Z,65.00
2017-04-13T05:00:23.642Z,67.00
2017-04-13T05:01:24.415Z,64.00
2017-04-13T05:02:25.186Z,79.00
2017-04-13T05:03:26.209Z,68.00
2017-04-13T05:04:26.979Z,63.00
2017-04-13T05:05:27.751Z,75.00
2017-04-13T05:06:28.521Z,60.00
2017-04-13T05:07:29.297Z,65.00
2017-04-13T05:08:30.319Z,73.00
2017-04-13T05:09:31.088Z,58.00
2017-04-13T05:10:31.861Z,58.00
2017-04-13T05:11:32.630Z,74.00
2017-04-13T05:12:33.464Z,54.00
2017-04-13T05:13:34.492Z,68.00
2017-04-13T05:14:35.262Z,60.00
2017-04-13T05:15:36.048Z,68.00
2017-04-13T05:16:36.832Z,68.00
2017-04-13T05:17:37.604Z,61.00
2017-04-13T05:18:38.626Z,53.00
2017-04-13T05:19:39.397Z,74.00
2017-04-13T05:20:40.266Z,64.00
2017-04-13T05:21:41.036Z,65.00
2017-04-13T05:22:41.810Z,63.00
2017-04-13T05:23:42.834Z,73.00
2017-04-13T05:24:43.609Z,86.00
2017-04-13T05:25:44.411Z,58.00
2017-04-13T05:26:45.199Z,59.00
2017-04-13T05:27:45.972Z,57.00
2017-04-13T05:28:47.059Z,62.00
2017-04-13T05:29:47.905Z,46.00
2017-04-13T05:30:48.701Z,58.00
2017-04-13T05:31:49.470Z,54.00
2017-04-13T05:32:50.241Z,56.00
2017-04-13T05:34:55.651Z,44.00
2017-04-13T05:35:56.504Z,53.00
2017-04-13T05:36:57.273Z,36.00
2017-04-13T05:37:58.062Z,60.00
2017-04-13T05:38:59.154Z,63.00
2017-04-13T05:39:59.992Z,58.00
2017-04-13T05:41:00.842Z,54.00
2017-04-13T05:42:01.611Z,43.00
2017-04-13T05:43:02.434Z,43.00
2017-04-13T05:44:04.366Z,56.00
2017-04-13T05:45:05.136Z,36.00
2017-04-13T05:46:05.909Z,46.00
2017-04-13T05:47:06.679Z,53.00
2017-04-13T05:48:07.451Z,39.00
2017-04-13T05:49:08.513Z,36.00
2017-04-13T05:50:09.275Z,30.00
2017-04-13T05:51:10.046Z,37.00
2017-04-13T05:52:10.897Z,37.00
2017-04-13T05:53:11.692Z,48.00
2017-04-13T05:54:12.714Z,52.00
2017-04-13T05:55:13.635Z,38.00
2017-04-13T05:56:15.385Z,51.00
2017-04-13T05:57:16.156Z,49.00
2017-04-13T05:58:16.926Z,60.00
2017-04-13T05:59:17.950Z,38.00
2017-04-13T06:00:18.723Z,42.00
2017-04-13T06:01:19.493Z,55.00
2017-04-13T06:02:20.267Z,45.00
2017-04-13T06:03:21.155Z,38.00
2017-04-13T06:04:22.202Z,34.00
2017-04-13T06:05:23.027Z,39.00
2017-04-13T06:06:23.787Z,51.00
2017-04-13T06:07:24.560Z,38.00
2017-04-13T06:08:25.401Z,35.00
2017-04-13T06:09:27.343Z,33.00
2017-04-13T06:10:28.116Z,54.00
2017-04-13T06:11:28.892Z,51.00
2017-04-13T06:12:29.681Z,27.00
2017-04-13T06:13:30.470Z,32.00
2017-04-13T06:14:31.488Z,55.00
2017-04-13T06:15:32.261Z,39.00
2017-04-13T06:16:33.035Z,32.00
2017-04-13T06:17:33.809Z,27.00
2017-04-13T06:18:34.586Z,41.00
2017-04-13T06:19:35.612Z,24.00
2017-04-13T06:20:36.391Z,26.00
2017-04-13T06:21:37.285Z,38.00
2017-04-13T06:22:38.071Z,35.00
2017-04-13T06:23:39.174Z,45.00
2017-04-13T06:24:40.200Z,24.00
2017-04-13T06:25:40.975Z,27.00
2017-04-13T06:26:41.779Z,28.00
2017-04-13T06:27:43.482Z,32.00
2017-04-13T06:28:44.257Z,27.00
2017-04-13T06:29:45.279Z,23.00
2017-04-13T06:30:46.059Z,21.00
2017-04-13T06:31:46.835Z,30.00
2017-04-13T06:32:47.612Z,12.00
2017-04-13T06:33:48.385Z,23.00
2017-04-13T06:34:49.408Z,27.00
2017-04-13T06:35:50.179Z,24.00
2017-04-13T06:36:50.955Z,31.00
2017-04-13T06:37:51.866Z,30.00
2017-04-13T06:38:52.667Z,26.00
2017-04-13T06:39:53.825Z,33.00
2017-04-13T06:40:54.965Z,42.00
2017-04-13T06:41:56.675Z,21.00
2017-04-13T06:42:57.457Z,22.00
2017-04-13T06:43:58.226Z,34.00
2017-04-13T06:44:59.248Z,19.00
2017-04-13T06:46:00.025Z,18.00
2017-04-13T06:47:00.797Z,18.00
2017-04-13T06:48:01.571Z,20.00
2017-04-13T06:49:02.348Z,20.00
2017-04-13T06:50:03.372Z,14.00
2017-04-13T06:51:04.149Z,19.00
2017-04-13T06:52:04.921Z,39.00
2017-04-13T06:53:05.698Z,24.00
2017-04-13T06:54:06.474Z,18.00
2017-04-13T06:55:07.498Z,18.00
2017-04-13T06:56:08.274Z,26.00
2017-04-13T06:57:09.050Z,16.00
2017-04-13T06:58:09.825Z,18.00
2017-04-13T06:59:10.602Z,22.00
2017-04-13T07:00:11.625Z,33.00
2017-04-13T07:01:12.401Z,17.00
2017-04-13T07:02:13.181Z,29.00
2017-04-13T07:03:13.953Z,24.00
2017-04-13T07:04:14.728Z,35.00
2017-04-13T07:05:15.752Z,17.00
2017-04-13T07:06:16.526Z,28.00
2017-04-13T07:07:17.298Z,38.00
2017-04-13T07:08:18.258Z,16.00
2017-04-13T07:09:19.033Z,20.00
2017-04-13T07:10:20.056Z,22.00
2017-04-13T07:11:20.833Z,20.00
2017-04-13T07:12:21.603Z,14.00
2017-04-13T07:13:22.379Z,11.00
2017-04-13T07:14:23.152Z,23.00
2017-04-13T07:15:24.176Z,26.00
2017-04-13T07:16:24.952Z,18.00
2017-04-13T07:17:25.726Z,29.00
2017-04-13T07:18:26.500Z,18.00
2017-04-13T07:19:27.278Z,26.00
2017-04-13T07:20:28.304Z,15.00
2017-04-13T07:21:29.079Z,23.00
2017-04-13T07:22:29.858Z,13.00
2017-04-13T07:23:30.633Z,20.00
2017-04-13T07:24:31.409Z,20.00
2017-04-13T07:25:32.429Z,17.00
2017-04-13T07:26:33.205Z,28.00
2017-04-13T07:27:33.979Z,18.00
2017-04-13T07:28:34.756Z,24.00
2017-04-13T07:29:35.528Z,20.00
2017-04-13T07:30:36.557Z,21.00
2017-04-13T07:31:37.327Z,24.00
2017-04-13T07:32:38.104Z,19.00
2017-04-13T07:33:38.880Z,21.00
2017-04-13T07:34:39.657Z,14.00
2017-04-13T07:35:40.678Z,12.00
2017-04-13T07:36:41.452Z,16.00
2017-04-13T07:37:42.228Z,25.00
2017-04-13T07:38:43.003Z,9.00
2017-04-13T07:39:43.778Z,27.00
2017-04-13T07:40:44.802Z,9.00
2017-04-13T07:41:45.580Z,19.00
2017-04-13T07:42:46.357Z,22.00
2017-04-13T07:43:47.134Z,17.00
2017-04-13T07:44:47.908Z,37.00
2017-04-13T07:45:48.931Z,28.00
2017-04-13T07:46:49.706Z,26.00
2017-04-13T07:47:50.479Z,11.00
2017-04-13T07:48:51.252Z,15.00
2017-04-13T07:49:52.025Z,15.00
2017-04-13T07:50:53.055Z,16.00
2017-04-13T07:51:53.827Z,19.00
2017-04-13T07:52:54.602Z,25.00
2017-04-13T07:53:55.374Z,11.00
2017-04-13T07:54:56.150Z,13.00
2017-04-13T07:55:57.176Z,13.00
2017-04-13T07:56:57.948Z,16.00
2017-04-13T07:57:58.724Z,25.00
2017-04-13T07:58:59.500Z,14.00
2017-04-13T08:00:00.275Z,14.00
2017-04-13T08:01:01.302Z,10.00
2017-04-13T08:02:02.076Z,34.00
2017-04-13T08:03:02.942Z,20.00
2017-04-13T08:04:03.718Z,20.00
2017-04-13T08:05:04.490Z,25.00
2017-04-13T08:06:05.518Z,22.00
2017-04-13T08:07:06.293Z,19.00
2017-04-13T08:08:07.070Z,14.00
2017-04-13T08:09:07.845Z,15.00
2017-04-13T08:10:08.619Z,8.00
2017-04-13T08:11:09.647Z,22.00
2017-04-13T08:12:10.421Z,21.00
2017-04-13T08:13:11.196Z,27.00
2017-04-13T08:14:11.971Z,17.00
2017-04-13T08:15:12.745Z,18.00
2017-04-13T08:16:13.775Z,22.00
2017-04-13T08:17:14.551Z,12.00
2017-04-13T08:18:15.329Z,14.00
2017-04-13T08:19:16.103Z,11.00
2017-04-13T08:20:16.879Z,10.00
2017-04-13T08:21:17.908Z,20.00
2017-04-13T08:22:18.685Z,23.00
2017-04-13T08:23:19.462Z,10.00
2017-04-13T08:24:20.240Z,20.00
2017-04-13T08:25:21.015Z,17.00
2017-04-13T08:26:22.045Z,13.00
2017-04-13T08:27:22.825Z,20.00
2017-04-13T08:28:23.599Z,7.00
2017-04-13T08:29:24.380Z,13.00
2017-04-13T08:30:25.151Z,14.00
2017-04-13T08:31:26.180Z,23.00
2017-04-13T08:32:26.954Z,14.00
2017-04-13T08:33:27.735Z,23.00
2017-04-13T08:34:28.516Z,22.00
2017-04-13T08:35:29.484Z,21.00
2017-04-13T08:36:30.510Z,10.00
2017-04-13T08:37:31.290Z,18.00
2017-04-13T08:38:32.062Z,31.00
2017-04-13T08:39:32.843Z,16.00
2017-04-13T08:40:33.675Z,27.00
2017-04-13T08:41:34.832Z,8.00
2017-04-13T08:42:35.614Z,12.00
2017-04-13T08:43:36.393Z,13.00
2017-04-13T08:44:37.172Z,20.00
2017-04-13T08:45:37.955Z,19.00
2017-04-13T08:46:38.980Z,24.00
2017-04-13T08:47:39.760Z,13.00
2017-04-13T08:48:40.539Z,11.00
2017-04-13T08:49:41.318Z,27.00
2017-04-13T08:50:42.098Z,19.00
2017-04-13T08:51:43.130Z,11.00
2017-04-13T08:52:43.913Z,13.00
2017-04-13T08:53:44.693Z,8.00
2017-04-13T08:54:45.475Z,17.00
2017-04-13T08:55:46.255Z,8.00
2017-04-13T08:56:47.289Z,8.00
2017-04-13T08:57:48.068Z,13.00
2017-04-13T08:58:48.978Z,26.00
2017-04-13T08:59:49.785Z,26.00
2017-04-13T09:00:50.564Z,12.00
2017-04-13T09:01:51.597Z,11.00
2017-04-13T09:02:52.376Z,10.00
2017-04-13T09:03:53.155Z,10.00
2017-04-13T09:04:53.937Z,18.00
2017-04-13T09:05:54.682Z,12.00
2017-04-13T09:06:55.714Z,17.00
2017-04-13T09:07:56.594Z,21.00
2017-04-13T09:08:57.397Z,23.00
2017-04-13T09:09:58.175Z,14.00
2017-04-13T09:10:58.956Z,13.00
2017-04-13T09:11:59.985Z,14.00
2017-04-13T09:13:00.765Z,22.00
2017-04-13T09:14:01.546Z,22.00
2017-04-13T09:15:02.326Z,19.00
2017-04-13T09:16:03.104Z,4.00
2017-04-13T09:17:04.132Z,19.00
2017-04-13T09:18:04.910Z,13.00
2017-04-13T09:19:05.692Z,7.00
2017-04-13T09:20:06.472Z,19.00
2017-04-13T09:21:07.252Z,14.00
2017-04-13T09:22:08.284Z,24.00
2017-04-13T09:23:09.059Z,21.00
2017-04-13T09:24:09.839Z,16.00
2017-04-13T09:25:10.618Z,9.00
2017-04-13T09:26:11.399Z,18.00
2017-04-13T09:27:12.432Z,15.00
2017-04-13T09:28:13.208Z,21.00
2017-04-13T09:29:13.994Z,15.00
2017-04-13T09:30:14.788Z,19.00
2017-04-13T09:31:15.666Z,18.00
2017-04-13T09:32:16.691Z,17.00
2017-04-13T09:33:17.571Z,28.00
2017-04-13T09:34:18.336Z,22.00
2017-04-13T09:35:19.114Z,22.00
2017-04-13T09:36:19.894Z,21.00
2017-04-13T09:37:20.919Z,12.00
2017-04-13T09:38:21.701Z,15.00
2017-04-13T09:39:22.477Z,16.00
2017-04-13T09:40:23.257Z,12.00
2017-04-13T09:41:24.043Z,11.00
2017-04-13T09:42:25.067Z,12.00
2017-04-13T09:43:25.842Z,6.00
2017-04-13T09:44:26.618Z,23.00
2017-04-13T09:45:27.396Z,10.00
2017-04-13T09:46:28.174Z,18.00
2017-04-13T09:47:29.202Z,24.00
2017-04-13T09:48:29.979Z,11.00
2017-04-13T09:49:30.759Z,10.00
2017-04-13T09:50:31.539Z,31.00
2017-04-13T09:51:32.314Z,18.00
2017-04-13T09:52:33.343Z,14.00
2017-04-13T09:53:34.123Z,25.00
2017-04-13T09:54:35.085Z,12.00
2017-04-13T09:55:35.862Z,9.00
2017-04-13T09:56:36.639Z,16.00
2017-04-13T09:57:37.663Z,12.00
2017-04-13T09:58:38.441Z,17.00
2017-04-13T09:59:39.219Z,11.00
2017-04-13T10:00:39.996Z,14.00
2017-04-13T10:01:40.773Z,16.00
2017-04-13T10:02:41.797Z,9.00
2017-04-13T10:03:42.575Z,10.00
2017-04-13T10:04:43.353Z,10.00
2017-04-13T10:05:44.133Z,11.00
2017-04-13T10:06:44.908Z,8.00
2017-04-13T10:07:45.933Z,15.00
2017-04-13T10:08:46.713Z,24.00
2017-04-13T10:09:47.489Z,7.00
2017-04-13T10:10:48.265Z,20.00
2017-04-13T10:11:49.044Z,14.00
2017-04-13T10:12:50.066Z,12.00
2017-04-13T10:13:50.844Z,24.00
2017-04-13T10:14:51.620Z,16.00
2017-04-13T10:15:52.400Z,11.00
2017-04-13T10:16:53.175Z,15.00
2017-04-13T10:17:54.203Z,8.00
2017-04-13T10:18:54.980Z,19.00
2017-04-13T10:19:55.760Z,16.00
2017-04-13T10:20:56.534Z,23.00
2017-04-13T10:21:57.314Z,11.00
2017-04-13T10:22:58.342Z,19.00
2017-04-13T10:23:59.118Z,12.00
2017-04-13T10:24:59.892Z,20.00
2017-04-13T10:26:00.670Z,12.00
2017-04-13T10:27:01.447Z,11.00
2017-04-13T10:28:02.475Z,8.00
2017-04-13T10:29:03.254Z,16.00
2017-04-13T10:30:04.030Z,20.00
2017-04-13T10:31:04.808Z,16.00
2017-04-13T10:32:05.589Z,10.00
2017-04-13T10:33:06.618Z,12.00
2017-04-13T10:34:07.397Z,11.00
2017-04-13T10:35:08.173Z,19.00
2017-04-13T10:36:08.953Z,15.00
2017-04-13T10:37:09.731Z,10.00
2017-04-13T10:38:10.759Z,5.00
2017-04-13T10:39:11.534Z,9.00
2017-04-13T10:40:12.497Z,21.00
2017-04-13T10:41:13.272Z,14.00
2017-04-13T10:42:14.048Z,11.00
2017-04-13T10:43:15.073Z,4.00
2017-04-13T10:44:15.851Z,8.00
2017-04-13T10:45:16.624Z,8.00
2017-04-13T10:46:17.399Z,8.00
2017-04-13T10:47:18.178Z,10.00
2017-04-13T10:48:19.205Z,5.00
2017-04-13T10:49:19.982Z,5.00
2017-04-13T10:50:20.755Z,5.00
2017-04-13T10:51:21.531Z,17.00
2017-04-13T10:52:22.303Z,11.00
2017-04-13T10:53:23.336Z,9.00
2017-04-13T10:54:24.110Z,7.00
2017-04-13T10:55:24.888Z,15.00
2017-04-13T10:56:25.666Z,7.00
2017-04-13T10:57:26.445Z,9.00
2017-04-13T10:58:27.471Z,5.00
2017-04-13T10:59:28.251Z,5.00
2017-04-13T11:00:29.030Z,12.00
2017-04-13T11:01:29.829Z,4.00
2017-04-13T11:02:30.617Z,5.00
2017-04-13T11:03:31.648Z,6.00
2017-04-13T11:04:32.424Z,9.00
2017-04-13T11:05:33.199Z,3.00
2017-04-13T11:06:33.975Z,9.00
2017-04-13T11:07:34.755Z,13.00
2017-04-13T11:08:35.783Z,3.00
2017-04-13T11:09:36.558Z,11.00
2017-04-13T11:10:37.337Z,11.00
2017-04-13T11:11:38.108Z,7.00
2017-04-13T11:12:38.883Z,16.00
2017-04-13T11:13:39.906Z,9.00
2017-04-13T11:14:40.683Z,6.00
2017-04-13T11:15:41.457Z,8.00
2017-04-13T11:16:42.228Z,8.00
2017-04-13T11:17:43.004Z,7.00
2017-04-13T11:18:44.026Z,8.00
2017-04-13T11:19:44.798Z,4.00
2017-04-13T11:20:45.576Z,16.00
2017-04-13T11:21:46.349Z,4.00
2017-04-13T11:22:47.121Z,4.00
2017-04-13T11:23:48.144Z,4.00
2017-04-13T11:24:48.918Z,8.00
2017-04-13T11:25:49.695Z,21.00
2017-04-13T11:26:50.466Z,5.00
2017-04-13T11:27:51.277Z,5.00
2017-04-13T11:28:53.220Z,7.00
2017-04-13T11:29:54.002Z,19.00
2017-04-13T11:30:54.767Z,3.00
2017-04-13T11:31:55.545Z,8.00
2017-04-13T11:32:56.317Z,5.00
2017-04-13T11:33:57.339Z,5.00
2017-04-13T11:34:58.115Z,8.00
2017-04-13T11:35:58.889Z,13.00
2017-04-13T11:36:59.662Z,5.00
2017-04-13T11:38:00.438Z,8.00
2017-04-13T11:39:01.459Z,21.00
2017-04-13T11:40:02.233Z,4.00
2017-04-13T11:41:03.003Z,5.00
2017-04-13T11:42:03.777Z,4.00
2017-04-13T11:43:04.550Z,10.00
2017-04-13T11:44:05.574Z,4.00
2017-04-13T11:45:06.347Z,3.00
2017-04-13T11:46:07.122Z,5.00
2017-04-13T11:47:07.892Z,16.00
2017-04-13T11:48:08.666Z,5.00
2017-04-13T11:49:09.690Z,3.00
2017-04-13T11:50:10.464Z,3.00
2017-04-13T11:51:11.235Z,8.00
2017-04-13T11:52:12.010Z,7.00
2017-04-13T11:53:12.785Z,6.00
2017-04-13T11:54:13.809Z,6.00
2017-04-13T11:55:14.589Z,7.00
2017-04-13T11:56:15.362Z,11.00
2017-04-13T11:57:16.140Z,3.00
2017-04-13T11:58:16.915Z,8.00
2017-04-13T11:59:17.943Z,3.00
2017-04-13T12:00:18.722Z,21.00
2017-04-13T12:01:19.501Z,9.00
2017-04-13T12:02:20.270Z,8.00
2017-04-13T12:03:21.046Z,7.00
2017-04-13T12:04:22.076Z,7.00
2017-04-13T12:05:22.854Z,4.00
2017-04-13T12:06:23.632Z,5.00
2017-04-13T12:07:24.405Z,4.00
2017-04-13T12:08:25.179Z,8.00
2017-04-13T12:09:26.208Z,8.00
2017-04-13T12:10:27.031Z,3.00
2017-04-13T12:11:28.725Z,8.00
2017-04-13T12:12:29.501Z,7.00
2017-04-13T12:13:30.280Z,15.00
2017-04-13T12:14:31.307Z,4.00
2017-04-13T12:15:32.089Z,9.00
2017-04-13T12:16:32.870Z,12.00
2017-04-13T12:17:33.652Z,19.00
2017-04-13T12:18:34.431Z,4.00
2017-04-13T12:19:35.467Z,11.00
2017-04-13T12:20:36.245Z,5.00
2017-04-13T12:21:37.029Z,22.00
2017-04-13T12:22:37.810Z,11.00
2017-04-13T12:23:38.591Z,4.00
2017-04-13T12:24:39.624Z,5.00
2017-04-13T12:25:40.407Z,5.00
2017-04-13T12:26:41.203Z,6.00
2017-04-13T12:27:41.987Z,12.00
2017-04-13T12:28:42.791Z,15.00
2017-04-13T12:29:43.834Z,14.00
2017-04-13T12:30:44.617Z,12.00
2017-04-13T12:31:45.592Z,8.00
2017-04-13T12:32:46.373Z,29.00
2017-04-13T12:33:47.162Z,7.00
2017-04-13T12:34:48.280Z,5.00
2017-04-13T12:35:49.105Z,6.00
2017-04-13T12:36:49.919Z,12.00
2017-04-13T12:37:50.702Z,17.00
2017-04-13T12:38:51.482Z,5.00
2017-04-13T12:39:52.510Z,10.00
2017-04-13T12:40:53.291Z,14.00
2017-04-13T12:41:54.071Z,6.00
2017-04-13T12:42:54.862Z,9.00
2017-04-13T12:43:55.634Z,3.00
2017-04-13T12:44:56.665Z,3.00
2017-04-13T12:45:57.478Z,4.00
2017-04-13T12:46:58.279Z,10.00
2017-04-13T12:47:59.057Z,9.00
2017-04-13T12:48:59.916Z,5.00
2017-04-13T12:50:00.945Z,4.00
2017-04-13T12:51:01.717Z,6.00
2017-04-13T12:52:02.497Z,6.00
2017-04-13T12:53:03.279Z,10.00
2017-04-13T12:54:04.055Z,10.00
2017-04-13T12:55:05.348Z,5.00
2017-04-13T12:56:06.160Z,2.00
2017-04-13T12:57:06.931Z,9.00
2017-04-13T12:58:07.748Z,3.00
2017-04-13T12:59:08.522Z,3.00
2017-04-13T13:00:09.549Z,6.00
2017-04-13T13:01:10.331Z,2.00
2017-04-13T13:02:11.189Z,14.00
2017-04-13T13:03:12.025Z,4.00
2017-04-13T13:04:13.044Z,7.00
2017-04-13T13:05:14.074Z,5.00
2017-04-13T13:06:14.855Z,4.00
2017-04-13T13:07:15.631Z,8.00
2017-04-13T13:08:16.411Z,5.00